createdAt,value
2022-10-01T00:00:50.773Z,12.22
2022-10-01T00:04:47.927Z,12.33
2022-10-01T00:08:49.047Z,12.26
2022-10-01T00:12:49.658Z,12.16
2022-10-01T00:16:46.759Z,12.17
2022-10-01T00:20:43.882Z,12.18
2022-10-01T00:24:40.968Z,11.95
2022-10-01T00:28:37.947Z,11.97
2022-10-01T00:32:34.903Z,12.01
2022-10-01T00:36:33.110Z,11.99
2022-10-01T00:40:30.123Z,11.97
2022-10-01T00:44:37.604Z,11.92
2022-10-01T00:48:50.638Z,11.94
2022-10-01T00:52:56.831Z,11.88
2022-10-01T00:56:58.276Z,11.80
2022-10-01T01:00:57.461Z,11.75
2022-10-01T01:04:54.441Z,11.65
2022-10-01T01:08:55.228Z,11.67
2022-10-01T01:13:17.323Z,11.53
2022-10-01T01:17:25.960Z,11.58
2022-10-01T01:21:36.872Z,11.53
2022-10-01T01:26:07.390Z,11.70
2022-10-01T01:30:15.373Z,11.72
2022-10-01T01:34:20.551Z,11.57
2022-10-01T01:38:29.078Z,11.49
2022-10-01T01:42:37.322Z,11.41
2022-10-01T01:46:40.400Z,11.23
2022-10-01T01:51:14.628Z,11.38
2022-10-01T01:55:11.726Z,11.26
2022-10-01T01:59:09.494Z,11.30
2022-10-01T02:03:07.724Z,11.12
2022-10-01T02:07:56.952Z,11.01
2022-10-01T02:12:35.757Z,11.22
2022-10-01T02:17:01.550Z,11.16
2022-10-01T02:21:18.681Z,11.51
2022-10-01T02:25:23.012Z,11.68
2022-10-01T02:29:24.004Z,11.73
2022-10-01T02:33:29.151Z,11.94
2022-10-01T02:37:28.391Z,11.80
2022-10-01T02:41:35.874Z,11.57
2022-10-01T02:45:37.817Z,11.63
2022-10-01T02:49:37.654Z,11.58
2022-10-01T02:53:53.765Z,11.67
2022-10-01T02:57:50.885Z,11.51
2022-10-01T03:01:48.383Z,11.44
2022-10-01T03:05:45.625Z,11.45
2022-10-01T03:09:42.995Z,11.45
2022-10-01T03:13:40.269Z,11.36
2022-10-01T03:17:38.080Z,11.26
2022-10-01T03:21:35.521Z,11.26
2022-10-01T03:25:32.800Z,11.13
2022-10-01T03:29:29.916Z,11.22
2022-10-01T03:33:26.910Z,11.19
2022-10-01T03:37:23.924Z,11.24
2022-10-01T03:41:21.117Z,11.03
2022-10-01T03:45:18.094Z,11.34
2022-10-01T03:49:15.146Z,11.20
2022-10-01T03:53:12.482Z,11.38
2022-10-01T03:57:09.484Z,11.66
2022-10-01T04:01:06.532Z,11.85
2022-10-01T04:05:03.845Z,11.93
2022-10-01T04:09:00.974Z,12.06
2022-10-01T04:12:58.018Z,11.99
2022-10-01T04:16:55.002Z,11.97
2022-10-01T04:20:52.428Z,11.87
2022-10-01T04:24:49.532Z,12.17
2022-10-01T04:28:46.992Z,12.27
2022-10-01T04:32:43.976Z,12.22
2022-10-01T04:36:40.938Z,12.30
2022-10-01T04:40:38.361Z,12.45
2022-10-01T04:44:35.512Z,12.67
2022-10-01T04:48:32.516Z,12.55
2022-10-01T04:52:29.560Z,12.70
2022-10-01T04:56:26.565Z,12.71
2022-10-01T05:00:26.486Z,12.71
2022-10-01T05:04:24.022Z,12.64
2022-10-01T05:08:22.633Z,12.66
2022-10-01T05:12:24.324Z,12.39
2022-10-01T05:16:21.817Z,12.45
2022-10-01T05:20:27.229Z,12.50
2022-10-01T05:24:24.270Z,12.83
2022-10-01T05:28:22.640Z,12.74
2022-10-01T05:32:20.244Z,12.94
2022-10-01T05:36:17.253Z,12.84
2022-10-01T05:40:14.394Z,12.78
2022-10-01T05:44:11.373Z,12.83
2022-10-01T05:48:09.568Z,13.05
2022-10-01T05:52:07.754Z,13.07
2022-10-01T05:56:07.564Z,13.21
2022-10-01T06:00:05.958Z,13.05
2022-10-01T06:04:10.930Z,13.40
2022-10-01T06:08:09.918Z,13.41
2022-10-01T06:12:09.875Z,13.52
2022-10-01T06:16:10.177Z,13.63
2022-10-01T06:20:07.620Z,13.46
2022-10-01T06:24:05.319Z,13.63
2022-10-01T06:28:02.725Z,13.66
2022-10-01T06:32:00.448Z,14.21
2022-10-01T06:35:57.462Z,14.24
2022-10-01T06:39:54.426Z,14.58
2022-10-01T06:43:51.430Z,14.71
2022-10-01T06:47:55.928Z,14.86
2022-10-01T06:52:12.182Z,14.98
2022-10-01T06:56:10.222Z,15.29
2022-10-01T07:00:08.179Z,15.41
2022-10-01T07:04:05.153Z,15.21
2022-10-01T07:08:02.361Z,15.00
2022-10-01T07:11:59.375Z,14.77
2022-10-01T07:15:56.537Z,15.00
2022-10-01T07:19:53.628Z,15.39
2022-10-01T07:23:50.581Z,15.51
2022-10-01T07:27:47.574Z,15.48
2022-10-01T07:31:44.832Z,15.74
2022-10-01T07:35:41.839Z,15.92
2022-10-01T07:39:38.792Z,16.22
2022-10-01T07:43:36.652Z,16.43
2022-10-01T07:47:33.683Z,16.62
2022-10-01T07:51:31.147Z,16.38
2022-10-01T07:55:30.891Z,16.79
2022-10-01T07:59:27.899Z,16.66
2022-10-01T08:03:25.595Z,16.92
2022-10-01T08:07:22.732Z,17.06
2022-10-01T08:11:19.717Z,17.10
2022-10-01T08:15:18.175Z,17.00
2022-10-01T08:19:15.947Z,17.24
2022-10-01T08:23:15.884Z,17.36
2022-10-01T08:27:12.915Z,17.41
2022-10-01T08:31:10.172Z,17.85
2022-10-01T08:35:07.849Z,18.02
2022-10-01T08:39:04.862Z,17.95
2022-10-01T08:43:11.416Z,18.31
2022-10-01T08:47:19.538Z,17.86
2022-10-01T08:51:51.384Z,18.47
2022-10-01T08:55:52.014Z,18.70
2022-10-01T08:59:54.464Z,19.08
2022-10-01T09:03:53.128Z,18.97
2022-10-01T09:08:55.745Z,18.79
2022-10-01T09:13:18.772Z,18.59
2022-10-01T09:17:48.293Z,17.94
2022-10-01T09:21:57.444Z,17.75
2022-10-01T09:25:57.305Z,17.88
2022-10-01T09:30:23.671Z,17.59
2022-10-01T09:34:38.000Z,17.22
2022-10-01T09:38:43.048Z,17.37
2022-10-01T09:42:40.176Z,17.81
2022-10-01T09:46:37.191Z,17.74
2022-10-01T09:50:43.896Z,17.68
2022-10-01T09:54:56.650Z,17.26
2022-10-01T09:59:01.952Z,17.60
2022-10-01T10:02:59.202Z,18.01
2022-10-01T10:07:05.228Z,17.62
2022-10-01T10:11:08.550Z,17.21
2022-10-01T10:15:26.418Z,17.06
2022-10-01T10:19:31.152Z,17.02
2022-10-01T10:23:31.513Z,17.33
2022-10-01T10:27:30.657Z,17.25
2022-10-01T10:31:38.379Z,17.88
2022-10-01T10:35:36.260Z,17.36
2022-10-01T10:39:40.074Z,17.49
2022-10-01T10:43:38.355Z,16.69
2022-10-01T10:47:48.902Z,17.09
2022-10-01T10:51:55.961Z,17.01
2022-10-01T10:56:02.699Z,17.04
2022-10-01T11:00:21.194Z,17.15
2022-10-01T11:04:38.379Z,17.01
2022-10-01T11:08:35.962Z,16.97
2022-10-01T11:13:29.351Z,17.17
2022-10-01T11:17:58.097Z,17.00
2022-10-01T11:22:31.187Z,16.72
2022-10-01T11:26:44.813Z,16.94
2022-10-01T11:31:51.039Z,17.25
2022-10-01T11:36:03.347Z,16.86
2022-10-01T11:40:15.387Z,17.48
2022-10-01T11:44:34.229Z,17.57
2022-10-01T11:48:38.329Z,17.42
2022-10-01T11:52:49.327Z,17.69
2022-10-01T11:57:14.385Z,17.29
2022-10-01T12:01:34.861Z,17.94
2022-10-01T12:05:34.492Z,18.11
2022-10-01T12:10:11.502Z,18.41
2022-10-01T12:14:20.192Z,18.11
2022-10-01T12:18:27.344Z,18.15
2022-10-01T12:22:39.651Z,18.21
2022-10-01T12:27:20.449Z,18.16
2022-10-01T12:31:33.481Z,17.96
2022-10-01T12:36:04.119Z,18.25
2022-10-01T12:40:30.610Z,19.04
2022-10-01T12:45:24.735Z,19.18
2022-10-01T12:49:29.612Z,19.52
2022-10-01T12:54:00.520Z,18.99
2022-10-01T12:58:36.295Z,18.96
2022-10-01T13:02:46.654Z,18.99
2022-10-01T13:07:27.329Z,18.96
2022-10-01T13:11:40.152Z,18.85
2022-10-01T13:15:49.600Z,18.78
2022-10-01T13:20:01.151Z,19.00
2022-10-01T13:24:38.349Z,19.03
2022-10-01T13:29:07.966Z,19.05
2022-10-01T13:33:26.382Z,18.63
2022-10-01T13:37:39.957Z,18.77
2022-10-01T13:41:40.125Z,18.66
2022-10-01T13:45:47.824Z,19.02
2022-10-01T13:50:00.577Z,19.35
2022-10-01T13:54:03.064Z,19.44
2022-10-01T13:58:30.205Z,18.84
2022-10-01T14:03:02.136Z,19.11
2022-10-01T14:07:23.810Z,18.89
2022-10-01T14:11:45.672Z,18.68
2022-10-01T14:16:00.320Z,18.91
2022-10-01T14:19:59.975Z,19.03
2022-10-01T14:24:19.050Z,18.81
2022-10-01T14:28:36.375Z,18.95
2022-10-01T14:33:31.513Z,18.84
2022-10-01T14:37:30.313Z,18.64
2022-10-01T14:41:27.466Z,18.58
2022-10-01T14:45:24.837Z,18.91
2022-10-01T14:49:27.865Z,18.26
2022-10-01T14:53:29.254Z,18.52
2022-10-01T14:57:42.232Z,18.45
2022-10-01T15:01:39.258Z,18.76
2022-10-01T15:05:37.536Z,18.63
2022-10-01T15:09:34.956Z,18.62
2022-10-01T15:13:38.701Z,18.70
2022-10-01T15:17:36.429Z,18.88
2022-10-01T15:21:40.443Z,18.63
2022-10-01T15:25:37.604Z,18.80
2022-10-01T15:29:35.576Z,18.90
2022-10-01T15:33:40.508Z,18.76
2022-10-01T15:37:39.349Z,18.98
2022-10-01T15:41:37.838Z,18.73
2022-10-01T15:45:35.985Z,18.76
2022-10-01T15:49:33.537Z,18.82
2022-10-01T15:53:32.725Z,18.81
2022-10-01T15:57:33.642Z,18.98
2022-10-01T16:01:40.496Z,18.62
2022-10-01T16:05:47.349Z,18.79
2022-10-01T16:10:00.320Z,18.93
2022-10-01T16:14:20.836Z,18.65
2022-10-01T16:18:22.682Z,18.94
2022-10-01T16:22:34.156Z,19.10
2022-10-01T16:26:37.105Z,19.18
2022-10-01T16:30:34.612Z,19.30
2022-10-01T16:34:31.747Z,19.30
2022-10-01T16:38:28.790Z,19.26
2022-10-01T16:42:25.780Z,19.42
2022-10-01T16:46:25.944Z,19.29
2022-10-01T16:50:24.254Z,19.50
2022-10-01T16:54:26.741Z,19.01
2022-10-01T16:58:24.788Z,19.20
2022-10-01T17:02:21.907Z,18.89
2022-10-01T17:06:19.020Z,19.02
2022-10-01T17:10:18.663Z,19.00
2022-10-01T17:14:19.683Z,19.21
2022-10-01T17:18:18.953Z,19.34
2022-10-01T17:22:16.571Z,19.20
2022-10-01T17:26:13.591Z,19.49
2022-10-01T17:30:11.176Z,19.38
2022-10-01T17:34:08.415Z,19.17
2022-10-01T17:38:05.542Z,19.53
2022-10-01T17:42:02.978Z,18.98
2022-10-01T17:46:01.365Z,19.15
2022-10-01T17:49:58.750Z,19.18
2022-10-01T17:53:56.456Z,19.35
2022-10-01T17:57:53.509Z,19.34
2022-10-01T18:01:52.813Z,19.69
2022-10-01T18:05:51.088Z,19.81
2022-10-01T18:09:48.301Z,20.17
2022-10-01T18:13:45.894Z,19.87
2022-10-01T18:17:43.782Z,19.33
2022-10-01T18:21:48.576Z,19.95
2022-10-01T18:25:45.592Z,20.12
2022-10-01T18:29:42.706Z,19.58
2022-10-01T18:33:55.260Z,19.44
2022-10-01T18:37:56.270Z,19.82
2022-10-01T18:41:53.579Z,18.18
2022-10-01T18:46:48.855Z,17.31
2022-10-01T18:51:52.051Z,17.32
2022-10-01T18:56:19.874Z,17.30
2022-10-01T19:00:23.590Z,17.23
2022-10-01T19:04:41.174Z,17.20
2022-10-01T19:09:20.518Z,17.09
2022-10-01T19:13:38.651Z,17.32
2022-10-01T19:18:27.086Z,17.73
2022-10-01T19:22:42.572Z,17.81
2022-10-01T19:27:09.632Z,17.81
2022-10-01T19:31:24.272Z,17.74
2022-10-01T19:35:27.751Z,17.59
2022-10-01T19:39:32.258Z,17.47
2022-10-01T19:44:07.265Z,17.56
2022-10-01T19:48:24.702Z,17.26
2022-10-01T19:52:25.262Z,17.59
2022-10-01T19:56:34.707Z,17.67
2022-10-01T20:00:34.671Z,17.65
2022-10-01T20:04:45.712Z,17.79
2022-10-01T20:09:14.613Z,17.79
2022-10-01T20:13:47.889Z,17.16
2022-10-01T20:18:14.700Z,17.46
2022-10-01T20:22:48.294Z,17.94
2022-10-01T20:26:50.984Z,17.61
2022-10-01T20:30:58.736Z,17.95
2022-10-01T20:35:27.736Z,17.91
2022-10-01T20:39:38.406Z,17.99
2022-10-01T20:43:51.031Z,18.09
2022-10-01T20:47:58.907Z,17.79
2022-10-01T20:51:55.908Z,17.86
2022-10-01T20:56:04.469Z,17.36
2022-10-01T21:00:19.143Z,17.68
2022-10-01T21:04:26.464Z,17.71
2022-10-01T21:08:46.775Z,17.74
2022-10-01T21:12:57.834Z,17.99
2022-10-01T21:17:08.776Z,18.01
2022-10-01T21:21:32.736Z,18.08
2022-10-01T21:25:50.713Z,17.91
2022-10-01T21:30:11.935Z,17.79
2022-10-01T21:34:28.453Z,17.86
2022-10-01T21:40:40.192Z,18.03
2022-10-01T21:44:52.022Z,17.79
2022-10-01T21:49:27.261Z,17.78
2022-10-01T21:53:35.951Z,17.80
2022-10-01T21:57:56.622Z,17.83
2022-10-01T22:02:26.990Z,18.00
2022-10-01T22:06:55.973Z,17.98
2022-10-01T22:11:00.689Z,17.61
2022-10-01T22:15:00.661Z,17.81
2022-10-01T22:19:06.865Z,17.88
2022-10-01T22:23:17.697Z,17.85
2022-10-01T22:27:25.004Z,18.18
2022-10-01T22:31:34.095Z,18.25
2022-10-01T22:35:55.410Z,17.94
2022-10-01T22:40:13.575Z,17.99
2022-10-01T22:44:22.234Z,18.08
2022-10-01T22:49:06.336Z,18.11
2022-10-01T22:53:33.491Z,18.06
2022-10-01T22:57:56.793Z,18.35
2022-10-01T23:02:00.379Z,18.23
2022-10-01T23:06:36.816Z,17.97
2022-10-01T23:10:59.115Z,17.90
2022-10-01T23:15:18.691Z,17.60
2022-10-01T23:19:42.474Z,17.82
2022-10-01T23:23:45.796Z,17.72
2022-10-01T23:28:22.605Z,17.86
2022-10-01T23:32:43.784Z,17.84
2022-10-01T23:37:08.050Z,18.02
2022-10-01T23:41:39.319Z,17.82
2022-10-01T23:45:51.856Z,17.90
2022-10-01T23:49:56.069Z,18.29
2022-10-01T23:54:42.159Z,18.36
2022-10-01T23:58:48.904Z,18.47
